sensor_id;sensor_type;location;lat;lon;timestamp;pressure;altitude;pressure_sealevel;temperature;humidity
32083;BME280;18597;48.328;7.932;2024-01-15T00:02:09;98813.25;;;-3.75;100.00
32083;BME280;18597;48.328;7.932;2024-01-15T00:04:39;98807.13;;;-3.74;100.00
32083;BME280;18597;48.328;7.932;2024-01-15T00:07:06;98810.78;;;-3.78;100.00
32083;BME280;18597;48.328;7.932;2024-01-15T00:09:32;98798.75;;;-3.82;100.00
32083;BME280;18597;48.328;7.932;2024-01-15T00:11:59;98789.25;;;-3.83;100.00
32083;BME280;18597;48.328;7.932;2024-01-15T00:14:26;98788.91;;;-3.75;100.00
32083;BME280;18597;48.328;7.932;2024-01-15T00:16:52;98808.50;;;-3.65;100.00
32083;BME280;18597;48.328;7.932;2024-01-15T00:19:21;98807.06;;;-3.72;100.00
32083;BME280;18597;48.328;7.932;2024-01-15T00:21:47;98801.44;;;-3.63;100.00
32083;BME280;18597;48.328;7.932;2024-01-15T00:24:13;98805.72;;;-3.60;100.00
32083;BME280;18597;48.328;7.932;2024-01-15T00:26:39;98803.44;;;-3.27;100.00
32083;BME280;18597;48.328;7.932;2024-01-15T00:29:08;98795.81;;;-3.32;100.00
32083;BME280;18597;48.328;7.932;2024-01-15T00:31:34;98802.59;;;-3.28;100.00
32083;BME280;18597;48.328;7.932;2024-01-15T00:34:00;98798.94;;;-3.24;100.00
32083;BME280;18597;48.328;7.932;2024-01-15T00:36:26;98808.22;;;-3.37;100.00
32083;BME280;18597;48.328;7.932;2024-01-15T00:38:53;98798.88;;;-3.43;100.00
32083;BME280;18597;48.328;7.932;2024-01-15T00:41:19;98798.16;;;-3.46;100.00
32083;BME280;18597;48.328;7.932;2024-01-15T00:43:45;98795.59;;;-3.48;100.00
32083;BME280;18597;48.328;7.932;2024-01-15T00:46:11;98792.03;;;-3.45;100.00
32083;BME280;18597;48.328;7.932;2024-01-15T00:48:37;98787.44;;;-3.40;100.00
32083;BME280;18597;48.328;7.932;2024-01-15T00:51:04;98788.09;;;-3.35;100.00
32083;BME280;18597;48.328;7.932;2024-01-15T00:53:30;98793.25;;;-2.93;100.00
32083;BME280;18597;48.328;7.932;2024-01-15T00:55:57;98789.97;;;-3.18;100.00
32083;BME280;18597;48.328;7.932;2024-01-15T00:58:22;98780.38;;;-3.18;100.00
32083;BME280;18597;48.328;7.932;2024-01-15T01:00:48;98781.50;;;-3.23;100.00
32083;BME280;18597;48.328;7.932;2024-01-15T01:03:14;98777.91;;;-3.21;100.00
32083;BME280;18597;48.328;7.932;2024-01-15T01:05:40;98789.97;;;-3.18;100.00
32083;BME280;18597;48.328;7.932;2024-01-15T01:08:06;98794.31;;;-3.17;100.00
32083;BME280;18597;48.328;7.932;2024-01-15T01:10:32;98774.25;;;-3.17;100.00
32083;BME280;18597;48.328;7.932;2024-01-15T01:12:58;98778.50;;;-3.14;100.00
32083;BME280;18597;48.328;7.932;2024-01-15T01:15:23;98780.69;;;-3.05;100.00
32083;BME280;18597;48.328;7.932;2024-01-15T01:17:50;98782.81;;;-3.13;100.00
32083;BME280;18597;48.328;7.932;2024-01-15T01:20:16;98778.16;;;-3.07;100.00
32083;BME280;18597;48.328;7.932;2024-01-15T01:22:41;98774.47;;;-3.02;100.00
32083;BME280;18597;48.328;7.932;2024-01-15T01:25:08;98768.44;;;-2.84;100.00
32083;BME280;18597;48.328;7.932;2024-01-15T01:27:35;98774.88;;;-2.91;100.00
32083;BME280;18597;48.328;7.932;2024-01-15T01:30:02;98773.28;;;-2.95;100.00
32083;BME280;18597;48.328;7.932;2024-01-15T01:32:28;98771.75;;;-2.99;100.00
32083;BME280;18597;48.328;7.932;2024-01-15T01:34:54;98771.94;;;-3.04;100.00
32083;BME280;18597;48.328;7.932;2024-01-15T01:37:19;98779.09;;;-3.08;100.00
32083;BME280;18597;48.328;7.932;2024-01-15T01:39:45;98785.00;;;-3.04;100.00
32083;BME280;18597;48.328;7.932;2024-01-15T01:42:12;98788.44;;;-3.02;100.00
32083;BME280;18597;48.328;7.932;2024-01-15T01:44:38;98788.19;;;-2.77;100.00
32083;BME280;18597;48.328;7.932;2024-01-15T01:47:04;98796.22;;;-2.82;100.00
32083;BME280;18597;48.328;7.932;2024-01-15T01:49:30;98790.13;;;-2.82;100.00
32083;BME280;18597;48.328;7.932;2024-01-15T01:51:59;98792.69;;;-2.81;100.00
32083;BME280;18597;48.328;7.932;2024-01-15T01:54:29;98784.50;;;-2.73;100.00
32083;BME280;18597;48.328;7.932;2024-01-15T01:56:57;98785.75;;;-2.82;100.00
32083;BME280;18597;48.328;7.932;2024-01-15T01:59:26;98779.91;;;-2.87;100.00
32083;BME280;18597;48.328;7.932;2024-01-15T02:01:54;98790.56;;;-2.91;100.00
32083;BME280;18597;48.328;7.932;2024-01-15T02:04:23;98794.66;;;-2.86;100.00
32083;BME280;18597;48.328;7.932;2024-01-15T02:06:50;98782.84;;;-2.94;100.00
32083;BME280;18597;48.328;7.932;2024-01-15T02:09:18;98788.84;;;-2.92;100.00
32083;BME280;18597;48.328;7.932;2024-01-15T02:11:46;98779.84;;;-2.85;100.00
32083;BME280;18597;48.328;7.932;2024-01-15T02:14:13;98777.72;;;-2.77;100.00
32083;BME280;18597;48.328;7.932;2024-01-15T02:16:38;98774.94;;;-2.74;100.00
32083;BME280;18597;48.328;7.932;2024-01-15T02:19:04;98774.69;;;-2.68;100.00
32083;BME280;18597;48.328;7.932;2024-01-15T02:21:31;98774.53;;;-2.65;100.00
32083;BME280;18597;48.328;7.932;2024-01-15T02:23:58;98775.06;;;-2.57;100.00
32083;BME280;18597;48.328;7.932;2024-01-15T02:26:24;98778.53;;;-2.56;100.00
32083;BME280;18597;48.328;7.932;2024-01-15T02:28:51;98764.44;;;-2.54;100.00
32083;BME280;18597;48.328;7.932;2024-01-15T02:31:17;98765.00;;;-2.47;100.00
32083;BME280;18597;48.328;7.932;2024-01-15T02:33:43;98764.16;;;-2.47;100.00
32083;BME280;18597;48.328;7.932;2024-01-15T02:36:11;98769.25;;;-2.44;100.00
32083;BME280;18597;48.328;7.932;2024-01-15T02:38:38;98769.25;;;-2.44;100.00
32083;BME280;18597;48.328;7.932;2024-01-15T02:41:04;98769.16;;;-2.43;100.00
32083;BME280;18597;48.328;7.932;2024-01-15T02:43:30;98764.06;;;-2.27;100.00
32083;BME280;18597;48.328;7.932;2024-01-15T02:45:56;98766.56;;;-2.24;100.00
32083;BME280;18597;48.328;7.932;2024-01-15T02:48:21;98767.66;;;-2.11;100.00
32083;BME280;18597;48.328;7.932;2024-01-15T02:50:47;98765.41;;;-2.18;100.00
32083;BME280;18597;48.328;7.932;2024-01-15T02:53:13;98764.97;;;-2.28;100.00
32083;BME280;18597;48.328;7.932;2024-01-15T02:55:39;98774.69;;;-2.30;100.00
32083;BME280;18597;48.328;7.932;2024-01-15T02:58:05;98770.28;;;-2.30;100.00
32083;BME280;18597;48.328;7.932;2024-01-15T03:00:30;98772.84;;;-2.28;100.00
32083;BME280;18597;48.328;7.932;2024-01-15T03:02:56;98774.59;;;-2.29;100.00
32083;BME280;18597;48.328;7.932;2024-01-15T03:05:22;98771.78;;;-2.24;100.00
32083;BME280;18597;48.328;7.932;2024-01-15T03:07:48;98764.41;;;-2.16;100.00
32083;BME280;18597;48.328;7.932;2024-01-15T03:10:14;98768.81;;;-2.16;100.00
32083;BME280;18597;48.328;7.932;2024-01-15T03:12:40;98761.88;;;-2.17;100.00
32083;BME280;18597;48.328;7.932;2024-01-15T03:15:06;98760.19;;;-2.18;100.00
32083;BME280;18597;48.328;7.932;2024-01-15T03:17:32;98767.19;;;-2.19;100.00
32083;BME280;18597;48.328;7.932;2024-01-15T03:19:57;98770.13;;;-2.08;100.00
32083;BME280;18597;48.328;7.932;2024-01-15T03:22:23;98765.06;;;-2.11;100.00
32083;BME280;18597;48.328;7.932;2024-01-15T03:24:49;98766.94;;;-2.14;100.00
32083;BME280;18597;48.328;7.932;2024-01-15T03:27:15;98766.03;;;-2.13;100.00
32083;BME280;18597;48.328;7.932;2024-01-15T03:29:41;98764.59;;;-2.02;100.00
32083;BME280;18597;48.328;7.932;2024-01-15T03:32:07;98764.13;;;-2.10;100.00
32083;BME280;18597;48.328;7.932;2024-01-15T03:34:33;98759.28;;;-2.00;100.00
32083;BME280;18597;48.328;7.932;2024-01-15T03:36:59;98762.34;;;-2.09;100.00
32083;BME280;18597;48.328;7.932;2024-01-15T03:39:25;98752.72;;;-2.09;100.00
32083;BME280;18597;48.328;7.932;2024-01-15T03:41:51;98754.63;;;-2.12;100.00
32083;BME280;18597;48.328;7.932;2024-01-15T03:44:16;98747.31;;;-1.87;100.00
32083;BME280;18597;48.328;7.932;2024-01-15T03:46:42;98742.19;;;-2.07;100.00
32083;BME280;18597;48.328;7.932;2024-01-15T03:49:08;98737.13;;;-2.10;100.00
32083;BME280;18597;48.328;7.932;2024-01-15T03:51:34;98734.88;;;-2.18;100.00
32083;BME280;18597;48.328;7.932;2024-01-15T03:54:00;98726.69;;;-2.12;100.00
32083;BME280;18597;48.328;7.932;2024-01-15T03:56:25;98738.41;;;-2.19;100.00
32083;BME280;18597;48.328;7.932;2024-01-15T03:58:51;98728.19;;;-2.06;100.00
32083;BME280;18597;48.328;7.932;2024-01-15T04:01:17;98719.47;;;-2.24;100.00
32083;BME280;18597;48.328;7.932;2024-01-15T04:03:43;98726.75;;;-2.31;100.00
32083;BME280;18597;48.328;7.932;2024-01-15T04:06:09;98729.47;;;-2.15;100.00
32083;BME280;18597;48.328;7.932;2024-01-15T04:08:35;98719.47;;;-2.07;100.00
32083;BME280;18597;48.328;7.932;2024-01-15T04:11:01;98719.94;;;-1.99;100.00
32083;BME280;18597;48.328;7.932;2024-01-15T04:13:27;98723.22;;;-2.12;100.00
32083;BME280;18597;48.328;7.932;2024-01-15T04:15:53;98717.78;;;-2.08;100.00
32083;BME280;18597;48.328;7.932;2024-01-15T04:18:19;98719.84;;;-2.14;100.00
32083;BME280;18597;48.328;7.932;2024-01-15T04:20:45;98713.59;;;-2.29;100.00
32083;BME280;18597;48.328;7.932;2024-01-15T04:23:10;98696.97;;;-2.28;100.00
32083;BME280;18597;48.328;7.932;2024-01-15T04:25:36;98701.50;;;-2.32;100.00
32083;BME280;18597;48.328;7.932;2024-01-15T04:28:02;98718.97;;;-2.32;100.00
32083;BME280;18597;48.328;7.932;2024-01-15T04:30:28;98714.03;;;-2.38;100.00
32083;BME280;18597;48.328;7.932;2024-01-15T04:32:54;98710.69;;;-2.23;100.00
32083;BME280;18597;48.328;7.932;2024-01-15T04:35:20;98702.34;;;-2.31;100.00
32083;BME280;18597;48.328;7.932;2024-01-15T04:37:45;98702.44;;;-2.33;100.00
32083;BME280;18597;48.328;7.932;2024-01-15T04:40:11;98696.50;;;-2.36;100.00
32083;BME280;18597;48.328;7.932;2024-01-15T04:42:37;98699.81;;;-2.33;100.00
32083;BME280;18597;48.328;7.932;2024-01-15T04:45:04;98695.84;;;-2.22;100.00
32083;BME280;18597;48.328;7.932;2024-01-15T04:47:30;98696.31;;;-2.14;100.00
32083;BME280;18597;48.328;7.932;2024-01-15T04:49:55;98684.13;;;-2.33;100.00
32083;BME280;18597;48.328;7.932;2024-01-15T04:52:21;98683.56;;;-2.39;100.00
32083;BME280;18597;48.328;7.932;2024-01-15T04:54:47;98688.72;;;-2.38;100.00
32083;BME280;18597;48.328;7.932;2024-01-15T04:57:13;98689.34;;;-2.33;100.00
32083;BME280;18597;48.328;7.932;2024-01-15T04:59:39;98675.16;;;-2.10;100.00
32083;BME280;18597;48.328;7.932;2024-01-15T05:02:05;98672.53;;;-1.92;100.00
32083;BME280;18597;48.328;7.932;2024-01-15T05:04:31;98672.28;;;-2.05;100.00
32083;BME280;18597;48.328;7.932;2024-01-15T05:06:58;98674.16;;;-2.07;100.00
32083;BME280;18597;48.328;7.932;2024-01-15T05:09:24;98681.63;;;-2.00;100.00
32083;BME280;18597;48.328;7.932;2024-01-15T05:11:49;98677.09;;;-1.96;100.00
32083;BME280;18597;48.328;7.932;2024-01-15T05:14:15;98677.59;;;-1.89;100.00
32083;BME280;18597;48.328;7.932;2024-01-15T05:16:49;98669.50;;;-1.68;100.00
32083;BME280;18597;48.328;7.932;2024-01-15T05:19:16;98664.22;;;-1.66;100.00
32083;BME280;18597;48.328;7.932;2024-01-15T05:21:42;98666.97;;;-1.69;100.00
32083;BME280;18597;48.328;7.932;2024-01-15T05:24:08;98666.34;;;-1.74;100.00
32083;BME280;18597;48.328;7.932;2024-01-15T05:26:34;98663.81;;;-1.76;100.00
32083;BME280;18597;48.328;7.932;2024-01-15T05:29:00;98669.38;;;-1.82;100.00
32083;BME280;18597;48.328;7.932;2024-01-15T05:31:26;98663.00;;;-1.93;100.00
32083;BME280;18597;48.328;7.932;2024-01-15T05:33:52;98665.53;;;-1.92;100.00
32083;BME280;18597;48.328;7.932;2024-01-15T05:36:19;98661.44;;;-1.98;100.00
32083;BME280;18597;48.328;7.932;2024-01-15T05:38:44;98662.44;;;-2.00;100.00
32083;BME280;18597;48.328;7.932;2024-01-15T05:41:10;98658.81;;;-1.98;100.00
32083;BME280;18597;48.328;7.932;2024-01-15T05:43:36;98666.16;;;-1.87;100.00
32083;BME280;18597;48.328;7.932;2024-01-15T05:46:02;98666.25;;;-1.88;100.00
32083;BME280;18597;48.328;7.932;2024-01-15T05:48:28;98666.47;;;-1.93;100.00
32083;BME280;18597;48.328;7.932;2024-01-15T05:50:54;98655.75;;;-1.88;100.00
32083;BME280;18597;48.328;7.932;2024-01-15T05:53:20;98647.63;;;-1.67;100.00
32083;BME280;18597;48.328;7.932;2024-01-15T05:55:46;98641.16;;;-1.59;100.00
32083;BME280;18597;48.328;7.932;2024-01-15T05:58:12;98637.16;;;-1.49;100.00
32083;BME280;18597;48.328;7.932;2024-01-15T06:00:37;98630.63;;;-1.58;100.00
32083;BME280;18597;48.328;7.932;2024-01-15T06:03:04;98632.09;;;-1.70;100.00
32083;BME280;18597;48.328;7.932;2024-01-15T06:05:30;98626.97;;;-1.88;100.00
32083;BME280;18597;48.328;7.932;2024-01-15T06:07:55;98624.97;;;-2.01;100.00
32083;BME280;18597;48.328;7.932;2024-01-15T06:10:21;98619.63;;;-1.82;100.00
32083;BME280;18597;48.328;7.932;2024-01-15T06:12:47;98613.78;;;-1.87;100.00
32083;BME280;18597;48.328;7.932;2024-01-15T06:15:13;98616.03;;;-1.79;100.00
32083;BME280;18597;48.328;7.932;2024-01-15T06:17:39;98615.34;;;-1.50;100.00
32083;BME280;18597;48.328;7.932;2024-01-15T06:20:05;98615.28;;;-1.48;100.00
32083;BME280;18597;48.328;7.932;2024-01-15T06:22:31;98610.22;;;-1.35;100.00
32083;BME280;18597;48.328;7.932;2024-01-15T06:24:58;98608.16;;;-1.46;100.00
32083;BME280;18597;48.328;7.932;2024-01-15T06:27:23;98601.69;;;-1.39;100.00
32083;BME280;18597;48.328;7.932;2024-01-15T06:29:49;98599.91;;;-1.23;100.00
32083;BME280;18597;48.328;7.932;2024-01-15T06:32:15;98590.28;;;-1.22;100.00
32083;BME280;18597;48.328;7.932;2024-01-15T06:34:41;98587.94;;;-1.27;100.00
32083;BME280;18597;48.328;7.932;2024-01-15T06:37:06;98580.81;;;-1.41;100.00
32083;BME280;18597;48.328;7.932;2024-01-15T06:39:32;98585.19;;;-1.41;100.00
32083;BME280;18597;48.328;7.932;2024-01-15T06:41:58;98575.56;;;-1.41;100.00
32083;BME280;18597;48.328;7.932;2024-01-15T06:44:24;98577.53;;;-1.28;100.00
32083;BME280;18597;48.328;7.932;2024-01-15T06:46:49;98572.84;;;-1.39;100.00
32083;BME280;18597;48.328;7.932;2024-01-15T06:49:17;98565.75;;;-1.37;100.00
32083;BME280;18597;48.328;7.932;2024-01-15T06:51:43;98560.78;;;-1.42;100.00
32083;BME280;18597;48.328;7.932;2024-01-15T06:54:08;98561.84;;;-1.46;100.00
32083;BME280;18597;48.328;7.932;2024-01-15T06:56:34;98562.38;;;-1.39;100.00
32083;BME280;18597;48.328;7.932;2024-01-15T06:59:00;98555.03;;;-1.32;100.00
32083;BME280;18597;48.328;7.932;2024-01-15T07:01:26;98553.94;;;-1.28;100.00
32083;BME280;18597;48.328;7.932;2024-01-15T07:03:52;98552.19;;;-1.12;100.00
32083;BME280;18597;48.328;7.932;2024-01-15T07:06:17;98567.63;;;-0.92;100.00
32083;BME280;18597;48.328;7.932;2024-01-15T07:08:43;98552.06;;;-0.79;100.00
32083;BME280;18597;48.328;7.932;2024-01-15T07:11:09;98552.56;;;-0.72;100.00
32083;BME280;18597;48.328;7.932;2024-01-15T07:13:36;98545.00;;;-0.63;100.00
32083;BME280;18597;48.328;7.932;2024-01-15T07:16:02;98553.16;;;-0.37;100.00
32083;BME280;18597;48.328;7.932;2024-01-15T07:18:28;98558.53;;;-0.24;100.00
32083;BME280;18597;48.328;7.932;2024-01-15T07:20:54;98559.22;;;-0.21;100.00
32083;BME280;18597;48.328;7.932;2024-01-15T07:23:20;98567.63;;;-0.16;100.00
32083;BME280;18597;48.328;7.932;2024-01-15T07:25:45;98572.03;;;-0.16;100.00
32083;BME280;18597;48.328;7.932;2024-01-15T07:28:11;98553.75;;;-0.18;100.00
32083;BME280;18597;48.328;7.932;2024-01-15T07:30:37;98568.81;;;-0.06;100.00
32083;BME280;18597;48.328;7.932;2024-01-15T07:33:05;98575.09;;;0.06;100.00
32083;BME280;18597;48.328;7.932;2024-01-15T07:35:31;98594.25;;;0.08;100.00
32083;BME280;18597;48.328;7.932;2024-01-15T07:37:57;98597.13;;;0.04;100.00
32083;BME280;18597;48.328;7.932;2024-01-15T07:40:24;98598.56;;;0.09;100.00
32083;BME280;18597;48.328;7.932;2024-01-15T07:42:51;98600.66;;;-0.12;100.00
32083;BME280;18597;48.328;7.932;2024-01-15T07:45:17;98614.53;;;-0.10;100.00
32083;BME280;18597;48.328;7.932;2024-01-15T07:47:43;98606.81;;;-0.27;100.00
32083;BME280;18597;48.328;7.932;2024-01-15T07:50:10;98602.53;;;-0.44;100.00
32083;BME280;18597;48.328;7.932;2024-01-15T07:52:35;98595.41;;;-0.12;100.00
32083;BME280;18597;48.328;7.932;2024-01-15T07:55:01;98600.22;;;-0.04;100.00
32083;BME280;18597;48.328;7.932;2024-01-15T07:57:29;98591.50;;;-0.05;100.00
32083;BME280;18597;48.328;7.932;2024-01-15T07:59:55;98583.56;;;0.11;100.00
32083;BME280;18597;48.328;7.932;2024-01-15T08:02:20;98597.44;;;0.13;100.00
32083;BME280;18597;48.328;7.932;2024-01-15T08:04:47;98600.63;;;0.18;100.00
32083;BME280;18597;48.328;7.932;2024-01-15T08:07:13;98583.94;;;0.34;100.00
32083;BME280;18597;48.328;7.932;2024-01-15T08:09:39;98585.63;;;0.35;100.00
32083;BME280;18597;48.328;7.932;2024-01-15T08:12:05;98586.75;;;0.45;100.00
32083;BME280;18597;48.328;7.932;2024-01-15T08:14:32;98579.56;;;0.48;100.00
32083;BME280;18597;48.328;7.932;2024-01-15T08:16:57;98585.84;;;0.46;100.00
32083;BME280;18597;48.328;7.932;2024-01-15T08:19:23;98581.13;;;0.51;100.00
32083;BME280;18597;48.328;7.932;2024-01-15T08:21:49;98565.66;;;0.61;100.00
32083;BME280;18597;48.328;7.932;2024-01-15T08:24:16;98567.16;;;0.65;100.00
32083;BME280;18597;48.328;7.932;2024-01-15T08:26:42;98571.09;;;0.72;100.00
32083;BME280;18597;48.328;7.932;2024-01-15T08:29:08;98575.50;;;0.71;100.00
32083;BME280;18597;48.328;7.932;2024-01-15T08:31:34;98582.16;;;0.77;100.00
32083;BME280;18597;48.328;7.932;2024-01-15T08:34:00;98580.28;;;0.79;100.00
32083;BME280;18597;48.328;7.932;2024-01-15T08:36:27;98573.44;;;0.76;100.00
32083;BME280;18597;48.328;7.932;2024-01-15T08:38:55;98572.66;;;0.74;100.00
32083;BME280;18597;48.328;7.932;2024-01-15T08:41:21;98574.91;;;0.80;100.00
32083;BME280;18597;48.328;7.932;2024-01-15T08:43:47;98581.69;;;0.85;100.00
32083;BME280;18597;48.328;7.932;2024-01-15T08:46:13;98589.94;;;0.93;100.00
32083;BME280;18597;48.328;7.932;2024-01-15T08:48:39;98581.13;;;0.79;100.00
32083;BME280;18597;48.328;7.932;2024-01-15T08:51:05;98586.38;;;0.94;100.00
32083;BME280;18597;48.328;7.932;2024-01-15T08:53:32;98588.78;;;0.97;100.00
32083;BME280;18597;48.328;7.932;2024-01-15T08:55:58;98580.66;;;0.87;100.00
32083;BME280;18597;48.328;7.932;2024-01-15T08:58:24;98576.22;;;0.88;100.00
32083;BME280;18597;48.328;7.932;2024-01-15T09:00:51;98580.06;;;0.96;100.00
32083;BME280;18597;48.328;7.932;2024-01-15T09:03:17;98576.78;;;0.93;100.00
32083;BME280;18597;48.328;7.932;2024-01-15T09:05:43;98585.19;;;1.12;100.00
32083;BME280;18597;48.328;7.932;2024-01-15T09:08:09;98586.53;;;1.05;100.00
32083;BME280;18597;48.328;7.932;2024-01-15T09:10:34;98577.22;;;1.14;100.00
32083;BME280;18597;48.328;7.932;2024-01-15T09:13:00;98564.81;;;1.16;100.00
32083;BME280;18597;48.328;7.932;2024-01-15T09:15:26;98569.03;;;1.18;100.00
32083;BME280;18597;48.328;7.932;2024-01-15T09:17:52;98560.47;;;1.29;100.00
32083;BME280;18597;48.328;7.932;2024-01-15T09:20:18;98561.66;;;1.37;100.00
32083;BME280;18597;48.328;7.932;2024-01-15T09:22:44;98573.34;;;1.46;100.00
32083;BME280;18597;48.328;7.932;2024-01-15T09:25:10;98585.81;;;1.57;100.00
32083;BME280;18597;48.328;7.932;2024-01-15T09:27:36;98584.78;;;1.72;100.00
32083;BME280;18597;48.328;7.932;2024-01-15T09:30:04;98584.69;;;1.74;100.00
32083;BME280;18597;48.328;7.932;2024-01-15T09:32:30;98579.84;;;1.80;100.00
32083;BME280;18597;48.328;7.932;2024-01-15T09:34:56;98590.22;;;1.83;100.00
32083;BME280;18597;48.328;7.932;2024-01-15T09:37:22;98598.03;;;1.98;100.00
32083;BME280;18597;48.328;7.932;2024-01-15T09:39:49;98593.72;;;1.97;100.00
32083;BME280;18597;48.328;7.932;2024-01-15T09:42:16;98600.22;;;2.04;100.00
32083;BME280;18597;48.328;7.932;2024-01-15T09:44:43;98592.88;;;2.09;100.00
32083;BME280;18597;48.328;7.932;2024-01-15T09:47:09;98592.03;;;2.08;100.00
32083;BME280;18597;48.328;7.932;2024-01-15T09:49:35;98580.69;;;2.20;100.00
32083;BME280;18597;48.328;7.932;2024-01-15T09:52:02;98582.78;;;2.28;100.00
32083;BME280;18597;48.328;7.932;2024-01-15T09:54:29;98573.28;;;2.38;100.00
32083;BME280;18597;48.328;7.932;2024-01-15T09:56:55;98574.97;;;2.39;100.00
32083;BME280;18597;48.328;7.932;2024-01-15T09:59:22;98571.38;;;2.40;100.00
32083;BME280;18597;48.328;7.932;2024-01-15T10:01:50;98562.75;;;2.51;100.00
32083;BME280;18597;48.328;7.932;2024-01-15T10:04:17;98574.25;;;2.50;100.00
32083;BME280;18597;48.328;7.932;2024-01-15T10:06:45;98578.47;;;2.53;100.00
32083;BME280;18597;48.328;7.932;2024-01-15T10:09:13;98580.78;;;2.44;100.00
32083;BME280;18597;48.328;7.932;2024-01-15T10:11:42;98583.41;;;2.44;100.00
32083;BME280;18597;48.328;7.932;2024-01-15T10:14:10;98576.66;;;2.40;100.00
32083;BME280;18597;48.328;7.932;2024-01-15T10:16:40;98587.09;;;2.29;100.00
32083;BME280;18597;48.328;7.932;2024-01-15T10:19:07;98582.56;;;2.18;100.00
32083;BME280;18597;48.328;7.932;2024-01-15T10:21:33;98581.19;;;2.13;100.00
32083;BME280;18597;48.328;7.932;2024-01-15T10:24:01;98577.06;;;2.09;100.00
32083;BME280;18597;48.328;7.932;2024-01-15T10:26:28;98568.97;;;2.12;100.00
32083;BME280;18597;48.328;7.932;2024-01-15T10:28:54;98572.00;;;2.18;100.00
32083;BME280;18597;48.328;7.932;2024-01-15T10:31:20;98582.56;;;2.18;100.00
32083;BME280;18597;48.328;7.932;2024-01-15T10:33:48;98571.63;;;2.37;100.00
32083;BME280;18597;48.328;7.932;2024-01-15T10:36:16;98565.50;;;2.37;100.00
32083;BME280;18597;48.328;7.932;2024-01-15T10:38:44;98566.53;;;2.34;100.00
32083;BME280;18597;48.328;7.932;2024-01-15T10:41:11;98568.84;;;2.26;100.00
32083;BME280;18597;48.328;7.932;2024-01-15T10:43:37;98573.53;;;2.35;100.00
32083;BME280;18597;48.328;7.932;2024-01-15T10:46:03;98564.84;;;2.33;100.00
32083;BME280;18597;48.328;7.932;2024-01-15T10:48:30;98574.97;;;2.39;100.00
32083;BME280;18597;48.328;7.932;2024-01-15T10:50:57;98556.63;;;2.50;100.00
32083;BME280;18597;48.328;7.932;2024-01-15T10:53:24;98567.56;;;2.70;100.00
32083;BME280;18597;48.328;7.932;2024-01-15T10:55:51;98559.53;;;2.84;100.00
32083;BME280;18597;48.328;7.932;2024-01-15T10:58:18;98564.16;;;2.93;100.00
32083;BME280;18597;48.328;7.932;2024-01-15T11:00:45;98557.34;;;3.15;100.00
32083;BME280;18597;48.328;7.932;2024-01-15T11:03:11;98554.81;;;3.37;98.69
32083;BME280;18597;48.328;7.932;2024-01-15T11:05:38;98562.84;;;3.36;99.27
32083;BME280;18597;48.328;7.932;2024-01-15T11:08:06;98566.09;;;3.39;96.56
32083;BME280;18597;48.328;7.932;2024-01-15T11:10:51;98554.38;;;3.43;97.14
32083;BME280;18597;48.328;7.932;2024-01-15T11:16:07;98549.88;;;3.56;92.08
32083;BME280;18597;48.328;7.932;2024-01-15T11:18:40;98552.63;;;3.55;92.74
32083;BME280;18597;48.328;7.932;2024-01-15T11:23:56;98554.78;;;3.50;91.52
32083;BME280;18597;48.328;7.932;2024-01-15T11:26:44;98537.72;;;3.54;90.43
32083;BME280;18597;48.328;7.932;2024-01-15T11:29:31;98549.50;;;3.50;91.15
32083;BME280;18597;48.328;7.932;2024-01-15T11:34:58;98540.22;;;3.44;93.14
32083;BME280;18597;48.328;7.932;2024-01-15T11:37:26;98535.47;;;3.25;93.95
32083;BME280;18597;48.328;7.932;2024-01-15T11:40:01;98540.09;;;3.22;97.35
32083;BME280;18597;48.328;7.932;2024-01-15T11:42:30;98544.03;;;3.16;96.42
32083;BME280;18597;48.328;7.932;2024-01-15T11:44:55;98540.53;;;3.16;97.06
32083;BME280;18597;48.328;7.932;2024-01-15T11:48:01;98555.25;;;3.07;96.36
32083;BME280;18597;48.328;7.932;2024-01-15T11:50:34;98545.47;;;2.96;97.64
32083;BME280;18597;48.328;7.932;2024-01-15T11:53:03;98555.50;;;2.91;99.75
32083;BME280;18597;48.328;7.932;2024-01-15T11:55:35;98537.16;;;2.90;100.00
32083;BME280;18597;48.328;7.932;2024-01-15T11:58:02;98542.75;;;2.85;100.00
32083;BME280;18597;48.328;7.932;2024-01-15T12:00:33;98537.06;;;2.78;100.00
32083;BME280;18597;48.328;7.932;2024-01-15T12:02:59;98530.34;;;2.74;100.00
32083;BME280;18597;48.328;7.932;2024-01-15T12:05:27;98522.03;;;2.55;100.00
32083;BME280;18597;48.328;7.932;2024-01-15T12:07:53;98525.84;;;2.51;100.00
32083;BME280;18597;48.328;7.932;2024-01-15T12:10:20;98523.75;;;2.43;100.00
32083;BME280;18597;48.328;7.932;2024-01-15T12:15:47;98527.88;;;2.35;100.00
32083;BME280;18597;48.328;7.932;2024-01-15T12:18:15;98528.41;;;2.27;100.00
32083;BME280;18597;48.328;7.932;2024-01-15T12:20:42;98529.03;;;2.31;100.00
32083;BME280;18597;48.328;7.932;2024-01-15T12:23:09;98524.38;;;2.21;100.00
32083;BME280;18597;48.328;7.932;2024-01-15T12:25:35;98539.66;;;2.16;100.00
32083;BME280;18597;48.328;7.932;2024-01-15T12:28:02;98529.88;;;2.06;100.00
32083;BME280;18597;48.328;7.932;2024-01-15T12:30:29;98529.88;;;2.06;100.00
32083;BME280;18597;48.328;7.932;2024-01-15T12:32:57;98533.75;;;2.00;100.00
32083;BME280;18597;48.328;7.932;2024-01-15T12:35:24;98528.28;;;1.90;100.00
32083;BME280;18597;48.328;7.932;2024-01-15T12:37:52;98527.63;;;1.74;100.00
32083;BME280;18597;48.328;7.932;2024-01-15T12:40:20;98527.59;;;1.61;100.00
32083;BME280;18597;48.328;7.932;2024-01-15T12:42:46;98530.53;;;1.57;100.00
32083;BME280;18597;48.328;7.932;2024-01-15T12:45:13;98533.56;;;1.51;100.00
32083;BME280;18597;48.328;7.932;2024-01-15T12:47:40;98526.16;;;1.43;100.00
32083;BME280;18597;48.328;7.932;2024-01-15T12:50:10;98528.47;;;1.35;100.00
32083;BME280;18597;48.328;7.932;2024-01-15T12:52:36;98532.69;;;1.37;100.00
32083;BME280;18597;48.328;7.932;2024-01-15T12:55:07;98530.97;;;1.24;100.00
32083;BME280;18597;48.328;7.932;2024-01-15T12:57:35;98538.41;;;1.17;100.00
32083;BME280;18597;48.328;7.932;2024-01-15T13:00:02;98543.22;;;1.10;100.00
32083;BME280;18597;48.328;7.932;2024-01-15T13:02:33;98544.22;;;1.22;100.00
32083;BME280;18597;48.328;7.932;2024-01-15T13:04:59;98543.38;;;1.22;100.00